createdAt,value
2017-10-27T00:00:21.789Z,91.25
2017-10-27T00:01:32.228Z,91.06
2017-10-27T00:02:42.710Z,91.16
2017-10-27T00:03:52.844Z,91.25
2017-10-27T00:05:03.491Z,91.06
2017-10-27T00:06:14.229Z,90.45
2017-10-27T00:07:24.667Z,90.39
2017-10-27T00:08:35.156Z,90.2
2017-10-27T00:09:45.683Z,89.87
2017-10-27T00:10:56.160Z,89.63
2017-10-27T00:12:06.622Z,89.53
2017-10-27T00:13:17.101Z,88.92
2017-10-27T00:14:28.205Z,88.63
2017-10-27T00:15:38.668Z,88.87
2017-10-27T00:16:49.161Z,88.54
2017-10-27T00:17:59.628Z,88.54
2017-10-27T00:19:10.194Z,87.87
2017-10-27T00:20:20.637Z,86.91
2017-10-27T00:21:31.107Z,86.43
2017-10-27T00:22:41.795Z,86.24
2017-10-27T00:23:52.272Z,86.82
2017-10-27T00:25:02.703Z,86.15
2017-10-27T00:26:13.250Z,86.05
2017-10-27T00:27:23.820Z,85.86
2017-10-27T00:28:34.293Z,85.96
2017-10-27T00:29:44.732Z,85.48
2017-10-27T00:30:55.325Z,85.67
2017-10-27T00:32:05.841Z,85.19
2017-10-27T00:33:16.421Z,85.58
2017-10-27T00:34:26.581Z,85.96
2017-10-27T00:35:37.050Z,85.48
2017-10-27T00:36:47.775Z,85.77
2017-10-27T00:37:58.236Z,85.58
2017-10-27T00:39:08.696Z,85.58
2017-10-27T00:40:18.829Z,85.19
2017-10-27T00:41:29.320Z,85.77
2017-10-27T00:42:39.851Z,85.86
2017-10-27T00:43:50.065Z,85.67
2017-10-27T00:45:00.512Z,85.67
2017-10-27T00:46:10.693Z,85.48
2017-10-27T00:47:21.130Z,85.58
2017-10-27T00:48:31.686Z,85.58
2017-10-27T00:49:42.239Z,85.38
2017-10-27T00:50:52.673Z,85.48
2017-10-27T00:52:03.154Z,85.58
2017-10-27T00:53:13.634Z,85.77
2017-10-27T00:54:24.115Z,85.48
2017-10-27T00:55:34.577Z,86.05
2017-10-27T00:56:45.103Z,86.05
2017-10-27T00:57:55.659Z,85.96
2017-10-27T00:59:05.686Z,85.96
2017-10-27T01:00:16.430Z,85.96
2017-10-27T01:01:26.558Z,85.96
2017-10-27T01:02:37.230Z,85.86
2017-10-27T01:03:47.697Z,86.05
2017-10-27T01:04:58.664Z,86.05
2017-10-27T01:06:09.138Z,86.05
2017-10-27T01:07:19.599Z,86.15
2017-10-27T01:08:30.074Z,85.58
2017-10-27T01:09:40.526Z,86.05
2017-10-27T01:10:51.229Z,85.96
2017-10-27T01:12:01.773Z,85.96
2017-10-27T01:13:12.250Z,85.86
2017-10-27T01:14:22.947Z,86.15
2017-10-27T01:15:33.605Z,86.15
2017-10-27T01:16:44.163Z,86.05
2017-10-27T01:17:54.633Z,86.05
2017-10-27T01:19:05.092Z,85.96
2017-10-27T01:20:15.562Z,86.05
2017-10-27T01:21:26.116Z,86.34
2017-10-27T01:22:36.566Z,85.86
2017-10-27T01:23:47.045Z,86.15
2017-10-27T01:24:57.505Z,86.43
2017-10-27T01:26:07.988Z,86.63
2017-10-27T01:27:18.491Z,86.63
2017-10-27T01:28:28.969Z,86.63
2017-10-27T01:29:39.403Z,86.53
2017-10-27T01:30:49.871Z,86.53
2017-10-27T01:32:00.330Z,86.43
2017-10-27T01:33:10.742Z,86.53
2017-10-27T01:34:21.203Z,86.63
2017-10-27T01:35:31.700Z,86.53
2017-10-27T01:36:42.137Z,86.43
2017-10-27T01:37:52.643Z,86.24
2017-10-27T01:39:03.134Z,87.01
2017-10-27T01:40:13.601Z,87.01
2017-10-27T01:41:24.049Z,86.82
2017-10-27T01:42:34.497Z,86.91
2017-10-27T01:43:44.920Z,86.53
2017-10-27T01:44:55.508Z,86.43
2017-10-27T01:46:05.628Z,86.72
2017-10-27T01:47:15.792Z,86.63
2017-10-27T01:48:26.250Z,86.53
2017-10-27T01:49:36.822Z,86.91
2017-10-27T01:50:47.267Z,86.77
2017-10-27T01:51:57.754Z,87.01
2017-10-27T01:53:08.248Z,87.01
2017-10-27T01:54:18.713Z,87.48
2017-10-27T01:55:29.186Z,87.39
2017-10-27T01:56:39.639Z,87.48
2017-10-27T01:57:50.092Z,87.39
2017-10-27T01:59:00.565Z,87.58
2017-10-27T02:00:11.023Z,87.48
2017-10-27T02:01:21.484Z,87.58
2017-10-27T02:02:31.782Z,88.06
2017-10-27T02:03:42.272Z,87.35
2017-10-27T02:04:52.771Z,87.77
2017-10-27T02:06:03.333Z,88.15
2017-10-27T02:07:13.816Z,87.87
2017-10-27T02:08:24.259Z,88.15
2017-10-27T02:09:34.704Z,88.15
2017-10-27T02:10:45.201Z,87.68
2017-10-27T02:11:55.642Z,87.68
2017-10-27T02:13:06.183Z,87.77
2017-10-27T02:14:16.664Z,87.63
2017-10-27T02:15:27.190Z,87.68
2017-10-27T02:16:37.720Z,87.82
2017-10-27T02:17:48.205Z,87.68
2017-10-27T02:18:58.233Z,87.73
2017-10-27T02:20:08.662Z,88.01
2017-10-27T02:21:18.802Z,87.63
2017-10-27T02:22:29.386Z,88.01
2017-10-27T02:23:39.839Z,88.01
2017-10-27T02:24:50.384Z,87.63
2017-10-27T02:26:00.832Z,87.73
2017-10-27T02:27:11.305Z,88.01
2017-10-27T02:28:21.761Z,87.92
2017-10-27T02:29:32.216Z,88.11
2017-10-27T02:30:42.701Z,87.73
2017-10-27T02:31:53.165Z,87.73
2017-10-27T02:33:03.678Z,88.01
2017-10-27T02:34:14.176Z,88.49
2017-10-27T02:35:24.628Z,88.59
2017-10-27T02:36:35.084Z,88.2
2017-10-27T02:37:45.594Z,88.3
2017-10-27T02:38:56.161Z,88.4
2017-10-27T02:40:06.663Z,88.4
2017-10-27T02:41:17.118Z,88.3
2017-10-27T02:42:27.607Z,88.3
2017-10-27T02:43:38.140Z,88.59
2017-10-27T02:44:48.575Z,88.01
2017-10-27T02:45:59.220Z,88.01
2017-10-27T02:47:09.710Z,87.63
2017-10-27T02:48:20.161Z,87.63
2017-10-27T02:49:30.302Z,88.01
2017-10-27T02:50:40.849Z,88.59
2017-10-27T02:51:51.357Z,87.92
2017-10-27T02:53:01.473Z,87.63
2017-10-27T02:54:11.977Z,87.92
2017-10-27T02:55:22.432Z,87.92
2017-10-27T02:56:32.889Z,88.01
2017-10-27T02:57:43.398Z,87.92
2017-10-27T02:58:54.048Z,87.82
2017-10-27T03:00:04.596Z,88.01
2017-10-27T03:01:15.066Z,87.35
2017-10-27T03:02:25.530Z,87.44
2017-10-27T03:03:36.069Z,87.44
2017-10-27T03:04:46.782Z,87.44
2017-10-27T03:05:57.262Z,88.01
2017-10-27T03:07:07.736Z,87.63
2017-10-27T03:08:18.297Z,87.63
2017-10-27T03:09:28.782Z,88.01
2017-10-27T03:10:39.232Z,87.82
2017-10-27T03:11:49.676Z,88.01
2017-10-27T03:13:00.189Z,87.82
2017-10-27T03:14:10.650Z,87.82
2017-10-27T03:15:21.095Z,87.82
2017-10-27T03:16:31.554Z,87.92
2017-10-27T03:17:42.062Z,87.82
2017-10-27T03:18:52.540Z,87.82
2017-10-27T03:20:02.997Z,88.01
2017-10-27T03:21:13.445Z,88.01
2017-10-27T03:22:23.958Z,87.92
2017-10-27T03:23:34.467Z,87.73
2017-10-27T03:24:45.224Z,87.73
2017-10-27T03:25:55.654Z,87.73
2017-10-27T03:27:06.234Z,87.73
2017-10-27T03:28:16.675Z,88.11
2017-10-27T03:29:27.224Z,88.11
2017-10-27T03:30:37.668Z,88.49
2017-10-27T03:31:48.152Z,87.92
2017-10-27T03:32:58.623Z,88.01
2017-10-27T03:34:08.697Z,88.11
2017-10-27T03:35:19.201Z,87.92
2017-10-27T03:36:29.691Z,87.73
2017-10-27T03:37:40.167Z,88.01
2017-10-27T03:38:50.613Z,87.73
2017-10-27T03:40:01.143Z,87.73
2017-10-27T03:41:11.591Z,87.63
2017-10-27T03:42:22.059Z,87.63
2017-10-27T03:43:32.733Z,87.54
2017-10-27T03:44:43.177Z,87.92
2017-10-27T03:45:53.351Z,88.11
2017-10-27T03:47:03.802Z,87.92
2017-10-27T03:48:14.295Z,88.4
2017-10-27T03:49:24.759Z,88.3
2017-10-27T03:50:35.206Z,88.59
2017-10-27T03:51:45.737Z,88.59
2017-10-27T03:52:56.226Z,88.4
2017-10-27T03:54:06.365Z,88.68
2017-10-27T03:55:16.905Z,88.59
2017-10-27T03:56:27.361Z,88.68
2017-10-27T03:57:37.844Z,88.4
2017-10-27T03:58:48.304Z,88.59
2017-10-27T03:59:58.789Z,88.59
2017-10-27T04:01:09.268Z,88.49
2017-10-27T04:02:19.755Z,88.49
2017-10-27T04:03:30.240Z,88.4
2017-10-27T04:04:40.376Z,88.4
2017-10-27T04:05:51.105Z,88.59
2017-10-27T04:07:01.637Z,88.3
2017-10-27T04:08:12.084Z,88.68
2017-10-27T04:09:22.572Z,88.4
2017-10-27T04:10:33.046Z,88.68
2017-10-27T04:11:43.542Z,87.92
2017-10-27T04:12:54.042Z,88.2
2017-10-27T04:14:04.491Z,88.59
2017-10-27T04:15:14.923Z,88.4
2017-10-27T04:16:25.373Z,88.59
2017-10-27T04:17:35.848Z,88.59
2017-10-27T04:18:46.320Z,88.59
2017-10-27T04:19:56.797Z,88.2
2017-10-27T04:21:07.306Z,88.2
2017-10-27T04:22:17.513Z,88.3
2017-10-27T04:23:28.020Z,88.4
2017-10-27T04:24:38.148Z,88.11
2017-10-27T04:25:48.614Z,88.2
2017-10-27T04:26:59.077Z,88.2
2017-10-27T04:28:09.543Z,88.68
2017-10-27T04:29:20.266Z,88.49
2017-10-27T04:30:30.747Z,88.01
2017-10-27T04:31:41.225Z,88.3
2017-10-27T04:32:51.688Z,88.59
2017-10-27T04:34:02.176Z,88.3
2017-10-27T04:35:12.838Z,88.59
2017-10-27T04:36:23.338Z,88.3
2017-10-27T04:37:33.786Z,88.49
2017-10-27T04:38:44.267Z,88.3
2017-10-27T04:39:54.750Z,88.3
2017-10-27T04:41:05.296Z,88.4
2017-10-27T04:42:15.739Z,88.4
2017-10-27T04:43:26.224Z,88.01
2017-10-27T04:44:36.669Z,88.3
2017-10-27T04:45:48.173Z,88.3
2017-10-27T04:46:58.656Z,88.2
2017-10-27T04:48:09.107Z,88.11
2017-10-27T04:49:19.553Z,88.2
2017-10-27T04:50:30.054Z,88.2
2017-10-27T04:51:40.205Z,88.4
2017-10-27T04:52:50.777Z,88.4
2017-10-27T04:54:01.236Z,88.3
2017-10-27T04:55:11.729Z,88.11
2017-10-27T04:56:22.270Z,88.3
2017-10-27T04:57:32.759Z,88.3
2017-10-27T04:58:43.203Z,88.49
2017-10-27T04:59:53.670Z,88.49
2017-10-27T05:01:04.125Z,88.3
2017-10-27T05:02:14.621Z,88.4
2017-10-27T05:03:25.092Z,87.97
2017-10-27T05:04:35.685Z,87.73
2017-10-27T05:05:46.141Z,87.73
2017-10-27T05:06:56.675Z,87.92
2017-10-27T05:08:07.212Z,87.73
2017-10-27T05:09:17.651Z,87.82
2017-10-27T05:10:28.214Z,87.73
2017-10-27T05:11:38.675Z,87.63
2017-10-27T05:12:49.143Z,87.78
2017-10-27T05:13:59.592Z,87.97
2017-10-27T05:15:10.063Z,87.78
2017-10-27T05:16:20.508Z,87.59
2017-10-27T05:17:31.040Z,87.68
2017-10-27T05:18:41.468Z,87.68
2017-10-27T05:19:51.951Z,88.07
2017-10-27T05:21:02.386Z,87.97
2017-10-27T05:22:12.938Z,87.78
2017-10-27T05:23:23.425Z,87.78
2017-10-27T05:24:33.849Z,87.3
2017-10-27T05:25:44.318Z,87.49
2017-10-27T05:26:54.754Z,87.59
2017-10-27T05:28:05.218Z,87.78
2017-10-27T05:29:15.654Z,87.68
2017-10-27T05:30:26.093Z,87.68
2017-10-27T05:31:36.626Z,87.87
2017-10-27T05:32:47.128Z,87.87
2017-10-27T05:33:57.830Z,88.26
2017-10-27T05:35:08.315Z,88.54
2017-10-27T05:36:18.434Z,88.16
2017-10-27T05:37:28.996Z,88.35
2017-10-27T05:38:39.688Z,88.26
2017-10-27T05:39:50.176Z,88.83
2017-10-27T05:41:00.683Z,88.83
2017-10-27T05:42:10.804Z,88.73
2017-10-27T05:43:21.036Z,88.54
2017-10-27T05:44:31.551Z,88.83
2017-10-27T05:45:42.191Z,88.83
2017-10-27T05:46:52.762Z,88.73
2017-10-27T05:48:03.212Z,88.73
2017-10-27T05:49:13.704Z,88.83
2017-10-27T05:50:23.835Z,88.83
2017-10-27T05:51:34.291Z,88.64
2017-10-27T05:52:44.799Z,88.73
2017-10-27T05:53:55.334Z,88.83
2017-10-27T05:55:05.849Z,88.64
2017-10-27T05:56:16.048Z,88.45
2017-10-27T05:57:26.500Z,88.73
2017-10-27T05:58:36.979Z,88.73
2017-10-27T05:59:47.430Z,88.64
2017-10-27T06:00:58.019Z,88.64
2017-10-27T06:02:08.540Z,88.92
2017-10-27T06:03:18.998Z,88.92
2017-10-27T06:04:29.691Z,88.35
2017-10-27T06:05:40.175Z,89.02
2017-10-27T06:06:50.715Z,88.73
2017-10-27T06:08:01.332Z,88.64
2017-10-27T06:09:11.801Z,88.92
2017-10-27T06:10:22.361Z,89.02
2017-10-27T06:11:33.228Z,88.92
2017-10-27T06:12:43.686Z,88.73
2017-10-27T06:13:54.119Z,88.54
2017-10-27T06:15:04.635Z,88.64
2017-10-27T06:16:15.133Z,88.35
2017-10-27T06:17:25.803Z,88.45
2017-10-27T06:18:36.326Z,88.45
2017-10-27T06:19:46.902Z,88.64
2017-10-27T06:20:56.643Z,88.45
2017-10-27T06:22:07.149Z,88.16
2017-10-27T06:23:17.643Z,88.54
2017-10-27T06:24:28.096Z,88.35
2017-10-27T06:25:38.603Z,88.35
2017-10-27T06:26:48.749Z,87.4
2017-10-27T06:27:59.244Z,87.59
2017-10-27T06:29:09.417Z,87.68
2017-10-27T06:30:19.864Z,88.45
2017-10-27T06:31:29.925Z,87.97
2017-10-27T06:32:40.392Z,87.59
2017-10-27T06:33:50.595Z,87.59
2017-10-27T06:35:01.104Z,87.78
2017-10-27T06:36:11.598Z,87.68
2017-10-27T06:37:22.033Z,87.59
2017-10-27T06:38:32.478Z,87.59
2017-10-27T06:39:42.952Z,87.97
2017-10-27T06:40:53.428Z,87.49
2017-10-27T06:42:03.927Z,87.3
2017-10-27T06:43:14.402Z,86.58
2017-10-27T06:44:24.886Z,86.01
2017-10-27T06:45:35.392Z,85.82
2017-10-27T06:46:45.855Z,85.72
2017-10-27T06:47:56.347Z,85.91
2017-10-27T06:49:06.918Z,86.2
2017-10-27T06:50:17.399Z,86.01
2017-10-27T06:51:27.849Z,85.91
2017-10-27T06:52:38.373Z,86.1
2017-10-27T06:53:48.847Z,86.01
2017-10-27T06:54:59.343Z,86.01
2017-10-27T06:56:09.794Z,86.1
2017-10-27T06:57:20.335Z,86.1
2017-10-27T06:58:30.872Z,85.82
2017-10-27T06:59:41.332Z,85.63
2017-10-27T07:00:51.788Z,85.97
2017-10-27T07:02:02.298Z,86.2
2017-10-27T07:03:12.434Z,86.63
2017-10-27T07:04:22.988Z,86.35
2017-10-27T07:05:33.647Z,86.63
2017-10-27T07:06:44.116Z,86.68
2017-10-27T07:07:54.681Z,86.44
2017-10-27T07:09:05.153Z,86.73
2017-10-27T07:10:15.708Z,86.82
2017-10-27T07:11:26.218Z,86.73
2017-10-27T07:12:36.692Z,86.63
2017-10-27T07:13:47.200Z,86.73
2017-10-27T07:14:57.660Z,86.44
2017-10-27T07:16:08.159Z,86.58
2017-10-27T07:17:18.657Z,86.49
2017-10-27T07:18:29.150Z,86.39
2017-10-27T07:19:39.626Z,86.01
2017-10-27T07:20:50.133Z,86.58
2017-10-27T07:22:00.616Z,86.01
2017-10-27T07:23:11.172Z,85.82
2017-10-27T07:24:21.713Z,85.44
2017-10-27T07:25:32.231Z,85.53
2017-10-27T07:26:42.719Z,85.53
2017-10-27T07:27:53.301Z,85.53
2017-10-27T07:29:03.796Z,85.53
2017-10-27T07:30:14.267Z,85.34
2017-10-27T07:31:24.791Z,84.86
2017-10-27T07:32:35.242Z,85.15
2017-10-27T07:33:46.365Z,85.34
2017-10-27T07:34:56.900Z,84.86
2017-10-27T07:36:07.430Z,85.15
2017-10-27T07:37:17.925Z,85.05
2017-10-27T07:38:28.390Z,84.96
2017-10-27T07:39:38.849Z,84.29
2017-10-27T07:40:49.349Z,82.61
2017-10-27T07:41:59.811Z,82.94
2017-10-27T07:43:09.936Z,80.84
2017-10-27T07:44:20.192Z,78.63
2017-10-27T07:45:30.744Z,76.37
2017-10-27T07:46:40.691Z,71.66
2017-10-27T07:47:51.163Z,72.8
2017-10-27T07:49:01.631Z,73.38
2017-10-27T07:50:11.761Z,74.4
2017-10-27T07:51:22.246Z,74.55
2017-10-27T07:52:32.434Z,75.41
2017-10-27T07:53:42.947Z,74.61
2017-10-27T07:54:53.466Z,74.3
2017-10-27T07:56:03.978Z,74.2
2017-10-27T07:57:14.473Z,72.58
2017-10-27T07:58:25.037Z,71.17
2017-10-27T07:59:35.514Z,68.24
2017-10-27T08:00:46.030Z,66.29
2017-10-27T08:01:56.492Z,64.22
2017-10-27T08:03:06.954Z,63.41
2017-10-27T08:04:17.145Z,64.22
2017-10-27T08:05:27.892Z,64.22
2017-10-27T08:06:38.382Z,63.22
2017-10-27T08:07:48.968Z,61.91
2017-10-27T08:08:59.529Z,61.23
2017-10-27T08:10:10.017Z,60.21
2017-10-27T08:11:20.492Z,59.66
2017-10-27T08:12:30.997Z,57.25
2017-10-27T08:13:41.461Z,57.54
2017-10-27T08:14:51.590Z,55.52
2017-10-27T08:16:02.052Z,54.2
2017-10-27T08:17:12.652Z,55.45
2017-10-27T08:18:23.155Z,55.81
2017-10-27T08:19:33.644Z,53.62
2017-10-27T08:20:43.475Z,53.36
2017-10-27T08:21:53.979Z,52.78
2017-10-27T08:23:04.450Z,51.17
2017-10-27T08:24:14.953Z,52.04
2017-10-27T08:25:25.511Z,52.33
2017-10-27T08:26:36.003Z,51.58
2017-10-27T08:27:46.504Z,52.91
2017-10-27T08:28:56.983Z,51.17
2017-10-27T08:30:07.209Z,50.69
2017-10-27T08:31:17.722Z,51
2017-10-27T08:32:28.218Z,50.71
2017-10-27T08:33:38.883Z,50.49
2017-10-27T08:34:49.353Z,49.53
2017-10-27T08:36:00.831Z,50.4
2017-10-27T08:37:11.328Z,50.32
2017-10-27T08:38:21.859Z,49.84
2017-10-27T08:39:32.402Z,49.27
2017-10-27T08:40:42.909Z,49.96
2017-10-27T08:41:53.513Z,51.07
2017-10-27T08:43:04.027Z,53.07
2017-10-27T08:44:14.499Z,54.56
2017-10-27T08:45:24.943Z,56.33
2017-10-27T08:46:35.090Z,57.45
2017-10-27T08:47:45.719Z,58.87
2017-10-27T08:48:56.410Z,60.08
2017-10-27T08:50:06.885Z,61.21
2017-10-27T08:51:17.393Z,62.33
2017-10-27T08:52:27.899Z,63.26
2017-10-27T08:53:38.396Z,64.59
2017-10-27T08:54:48.890Z,65.23
2017-10-27T08:55:59.392Z,65.3
2017-10-27T08:57:09.914Z,66.93
2017-10-27T08:58:20.540Z,67.27
2017-10-27T08:59:31.078Z,67.85
2017-10-27T09:00:41.555Z,66.8
2017-10-27T09:01:52.161Z,67.37
2017-10-27T09:03:03.010Z,67.27
2017-10-27T09:04:13.554Z,67.76
2017-10-27T09:05:24.052Z,68.04
2017-10-27T09:06:34.613Z,67.94
2017-10-27T09:07:45.083Z,66.13
2017-10-27T09:08:55.651Z,66
2017-10-27T09:10:06.154Z,65.33
2017-10-27T09:11:16.628Z,65.05
2017-10-27T09:12:27.183Z,62.93
2017-10-27T09:13:37.720Z,63.35
2017-10-27T09:14:48.403Z,63.92
2017-10-27T09:15:58.877Z,64.59
2017-10-27T09:17:09.411Z,65.05
2017-10-27T09:18:19.871Z,65.71
2017-10-27T09:19:30.408Z,65.91
2017-10-27T09:20:40.876Z,66.45
2017-10-27T09:21:51.333Z,66.83
2017-10-27T09:23:01.802Z,67.5
2017-10-27T09:24:13.339Z,67.76
2017-10-27T09:25:23.863Z,67.76
2017-10-27T09:26:34.342Z,68.49
2017-10-27T09:27:44.520Z,68.58
2017-10-27T09:28:54.690Z,69.25
2017-10-27T09:30:05.155Z,69.15
2017-10-27T09:31:15.656Z,69.82
2017-10-27T09:32:25.824Z,69.35
2017-10-27T09:33:35.886Z,69.54
2017-10-27T09:34:46.395Z,69.44
2017-10-27T09:35:56.911Z,69.82
2017-10-27T09:37:07.385Z,69.64
2017-10-27T09:38:17.888Z,69.73
2017-10-27T09:39:28.336Z,70.11
2017-10-27T09:40:38.818Z,70.3
2017-10-27T09:41:49.340Z,71.07
2017-10-27T09:42:59.836Z,70.87
2017-10-27T09:44:10.337Z,71.07
2017-10-27T09:45:20.727Z,71.51
2017-10-27T09:46:31.194Z,72.18
2017-10-27T09:47:41.675Z,72.08
2017-10-27T09:48:52.137Z,72.37
2017-10-27T09:50:02.603Z,72.94
2017-10-27T09:51:13.156Z,73.52
2017-10-27T09:52:23.890Z,72.94
2017-10-27T09:53:34.631Z,73.43
2017-10-27T09:54:44.662Z,73.23
2017-10-27T09:55:55.172Z,73.14
2017-10-27T09:57:05.630Z,73.14
2017-10-27T09:58:16.094Z,73.04
2017-10-27T09:59:26.603Z,73.43
2017-10-27T10:00:37.087Z,73.9
2017-10-27T10:01:47.476Z,73.8
2017-10-27T10:02:57.956Z,74.09
2017-10-27T10:04:08.500Z,73.9
2017-10-27T10:05:18.946Z,74.19
2017-10-27T10:06:29.534Z,74.28
2017-10-27T10:07:39.983Z,74.66
2017-10-27T10:08:50.481Z,74.66
2017-10-27T10:10:00.937Z,74.95
2017-10-27T10:11:11.462Z,75.14
2017-10-27T10:12:22.006Z,75.39
2017-10-27T10:13:32.327Z,75.68
2017-10-27T10:14:42.815Z,75.59
2017-10-27T10:15:53.341Z,75.96
2017-10-27T10:17:03.810Z,75.78
2017-10-27T10:18:14.271Z,75.87
2017-10-27T10:19:24.742Z,75.49
2017-10-27T10:20:35.210Z,75.68
2017-10-27T10:21:45.728Z,75.49
2017-10-27T10:22:56.208Z,75.78
2017-10-27T10:24:06.735Z,75.59
2017-10-27T10:25:17.215Z,75.81
2017-10-27T10:26:27.675Z,75.91
2017-10-27T10:27:38.131Z,75.24
2017-10-27T10:28:48.629Z,75.52
2017-10-27T10:29:59.124Z,75.24
2017-10-27T10:31:09.629Z,74.66
2017-10-27T10:32:20.097Z,74.76
2017-10-27T10:33:30.581Z,74.57
2017-10-27T10:34:41.120Z,73.99
2017-10-27T10:35:51.735Z,73.99
2017-10-27T10:37:02.281Z,73.33
2017-10-27T10:38:12.880Z,72.85
2017-10-27T10:39:23.397Z,73.46
2017-10-27T10:40:33.854Z,72.5
2017-10-27T10:41:44.698Z,72.12
2017-10-27T10:42:55.264Z,71.11
2017-10-27T10:44:05.765Z,70.91
2017-10-27T10:45:15.804Z,69.67
2017-10-27T10:46:26.341Z,69.13
2017-10-27T10:47:36.816Z,68.74
2017-10-27T10:48:47.335Z,68.55
2017-10-27T10:49:57.845Z,69.13
2017-10-27T10:51:08.317Z,69.51
2017-10-27T10:52:18.920Z,69.51
2017-10-27T10:53:29.431Z,69.38
2017-10-27T10:54:39.927Z,70.09
2017-10-27T10:55:50.474Z,69.76
2017-10-27T10:57:00.936Z,70.09
2017-10-27T10:58:11.514Z,70.24
2017-10-27T10:59:22.065Z,70.81
2017-10-27T11:00:32.562Z,71.07
2017-10-27T11:01:43.060Z,71.01
2017-10-27T11:02:53.220Z,70.37
2017-10-27T11:04:03.472Z,69.6
2017-10-27T11:05:14.052Z,69.07
2017-10-27T11:06:24.592Z,68.59
2017-10-27T11:07:35.337Z,67.82
2017-10-27T11:08:45.819Z,67.76
2017-10-27T11:09:56.296Z,68.14
2017-10-27T11:11:06.873Z,67.95
2017-10-27T11:12:17.378Z,68.11
2017-10-27T11:13:27.859Z,68.59
2017-10-27T11:14:38.363Z,68.14
2017-10-27T11:15:48.843Z,68.24
2017-10-27T11:16:59.480Z,68.3
2017-10-27T11:18:10.112Z,68.4
2017-10-27T11:19:20.572Z,68.87
2017-10-27T11:20:31.130Z,69.17
2017-10-27T11:21:41.608Z,69.6
2017-10-27T11:22:52.088Z,69.7
2017-10-27T11:24:02.569Z,69.7
2017-10-27T11:25:13.045Z,70.37
2017-10-27T11:26:23.543Z,70.56
2017-10-27T11:27:34.076Z,70.72
2017-10-27T11:28:44.587Z,71.3
2017-10-27T11:29:55.095Z,71.11
2017-10-27T11:31:05.580Z,71.58
2017-10-27T11:32:16.072Z,72.06
2017-10-27T11:33:26.515Z,71.77
2017-10-27T11:34:37.060Z,72.31
2017-10-27T11:35:47.694Z,71.83
2017-10-27T11:36:58.222Z,72.31
2017-10-27T11:38:08.792Z,72.5
2017-10-27T11:39:19.301Z,73.08
2017-10-27T11:40:29.631Z,72.98
2017-10-27T11:41:40.084Z,72.31
2017-10-27T11:42:50.767Z,72.41
2017-10-27T11:44:01.232Z,72.6
2017-10-27T11:45:11.712Z,71.45
2017-10-27T11:46:21.771Z,71.83
2017-10-27T11:47:32.263Z,71.83
2017-10-27T11:48:42.839Z,71.55
2017-10-27T11:49:53.351Z,71.26
2017-10-27T11:51:03.839Z,71.16
2017-10-27T11:52:14.338Z,71.07
2017-10-27T11:53:24.798Z,70.87
2017-10-27T11:54:35.401Z,70.59
2017-10-27T11:55:45.895Z,70.21
2017-10-27T11:56:56.347Z,70.5
2017-10-27T11:58:06.874Z,70.01
2017-10-27T11:59:17.400Z,69.64
2017-10-27T12:00:27.903Z,70.11
2017-10-27T12:01:38.386Z,70.4
2017-10-27T12:02:48.774Z,70.97
2017-10-27T12:03:59.270Z,70.87
2017-10-27T12:05:09.879Z,71.16
2017-10-27T12:06:20.418Z,71.22
2017-10-27T12:07:30.912Z,71.03
2017-10-27T12:08:41.101Z,71.13
2017-10-27T12:09:51.657Z,71.7
2017-10-27T12:11:02.143Z,71.89
2017-10-27T12:12:12.674Z,72.28
2017-10-27T12:13:23.212Z,72.47
2017-10-27T12:14:33.753Z,72.28
2017-10-27T12:15:44.228Z,72.37
2017-10-27T12:16:55.764Z,72.66
2017-10-27T12:18:06.305Z,72.37
2017-10-27T12:19:16.791Z,73.04
2017-10-27T12:20:27.245Z,72.94
2017-10-27T12:21:37.854Z,72.75
2017-10-27T12:22:48.364Z,72.94
2017-10-27T12:23:58.830Z,73.23
2017-10-27T12:25:09.031Z,73.61
2017-10-27T12:26:19.589Z,74.19
2017-10-27T12:27:30.092Z,74.19
2017-10-27T12:28:40.566Z,75.24
2017-10-27T12:29:51.046Z,75.71
2017-10-27T12:31:01.710Z,75.05
2017-10-27T12:32:12.203Z,76.29
2017-10-27T12:33:22.675Z,75.62
2017-10-27T12:34:33.234Z,75.91
2017-10-27T12:35:43.786Z,76.2
2017-10-27T12:36:54.261Z,76.86
2017-10-27T12:38:04.730Z,76.86
2017-10-27T12:39:15.253Z,77.06
2017-10-27T12:40:25.775Z,78.39
2017-10-27T12:41:36.410Z,78.11
2017-10-27T12:42:46.910Z,78.11
2017-10-27T12:43:57.555Z,78.97
2017-10-27T12:45:08.056Z,79.88
2017-10-27T12:46:18.254Z,79.22
2017-10-27T12:47:28.743Z,79.69
2017-10-27T12:48:39.267Z,80.55
2017-10-27T12:49:49.748Z,80.07
2017-10-27T12:51:00.226Z,80.65
2017-10-27T12:52:10.713Z,80.36
2017-10-27T12:53:21.218Z,80.84
2017-10-27T12:54:31.840Z,80.65
2017-10-27T12:55:42.344Z,80.84
2017-10-27T12:56:52.814Z,80.84
2017-10-27T12:58:03.423Z,80.65
2017-10-27T12:59:13.622Z,81.03
2017-10-27T13:00:24.181Z,80.55
2017-10-27T13:01:34.652Z,80.36
2017-10-27T13:02:44.784Z,80.17
2017-10-27T13:03:55.299Z,80.17
2017-10-27T13:05:05.855Z,80.07
2017-10-27T13:06:16.349Z,80.46
2017-10-27T13:07:26.851Z,79.54
2017-10-27T13:08:37.395Z,79.12
2017-10-27T13:09:47.899Z,79.02
2017-10-27T13:10:58.127Z,79.12
2017-10-27T13:12:08.653Z,78.78
2017-10-27T13:13:19.180Z,77.97
2017-10-27T13:14:29.692Z,77.34
2017-10-27T13:15:40.202Z,76.96
2017-10-27T13:16:50.891Z,76.57
2017-10-27T13:18:01.357Z,76.67
2017-10-27T13:19:11.862Z,76.86
2017-10-27T13:20:22.553Z,75.62
2017-10-27T13:21:33.015Z,74.85
2017-10-27T13:22:43.563Z,74.66
2017-10-27T13:23:54.163Z,74.7
2017-10-27T13:25:04.690Z,73.75
2017-10-27T13:26:15.225Z,74.13
2017-10-27T13:27:26.056Z,73.27
2017-10-27T13:28:36.626Z,73.36
2017-10-27T13:29:47.154Z,73.84
2017-10-27T13:30:57.745Z,73.75
2017-10-27T13:32:08.245Z,73.36
2017-10-27T13:33:18.811Z,72.79
2017-10-27T13:34:29.312Z,73.08
2017-10-27T13:35:39.796Z,73.17
2017-10-27T13:36:50.448Z,73.75
2017-10-27T13:38:00.893Z,73.94
2017-10-27T13:39:11.701Z,74.51
2017-10-27T13:40:22.231Z,74.32
2017-10-27T13:41:32.696Z,73.94
2017-10-27T13:42:42.871Z,73.99
2017-10-27T13:43:53.231Z,74.19
2017-10-27T13:45:03.053Z,74.48
2017-10-27T13:46:13.611Z,74.28
2017-10-27T13:47:24.136Z,74.09
2017-10-27T13:48:34.657Z,74.38
2017-10-27T13:49:45.139Z,74.19
2017-10-27T13:50:55.621Z,74.19
2017-10-27T13:52:06.119Z,74.57
2017-10-27T13:53:16.308Z,74.19
2017-10-27T13:54:26.836Z,74.48
2017-10-27T13:55:37.664Z,73.9
2017-10-27T13:56:48.141Z,73.46
2017-10-27T13:57:58.627Z,72.79
2017-10-27T13:59:09.071Z,73.46
2017-10-27T14:00:19.640Z,73.36
2017-10-27T14:01:30.119Z,73.36
2017-10-27T14:02:40.626Z,72.79
2017-10-27T14:03:51.107Z,72.5
2017-10-27T14:05:01.721Z,72.5
2017-10-27T14:06:13.187Z,72.22
2017-10-27T14:07:23.699Z,72.5
2017-10-27T14:08:34.215Z,71.73
2017-10-27T14:09:44.711Z,72.22
2017-10-27T14:10:55.177Z,72.02
2017-10-27T14:12:05.648Z,72.5
2017-10-27T14:13:16.296Z,71.55
2017-10-27T14:14:26.806Z,71.64
2017-10-27T14:15:37.282Z,72.37
2017-10-27T14:16:47.833Z,72.69
2017-10-27T14:17:58.325Z,72.56
2017-10-27T14:19:08.832Z,72.37
2017-10-27T14:20:19.344Z,72.75
2017-10-27T14:21:29.856Z,72.37
2017-10-27T14:22:40.353Z,73.04
2017-10-27T14:23:50.856Z,73.04
2017-10-27T14:25:01.356Z,73.43
2017-10-27T14:26:11.890Z,73.52
2017-10-27T14:27:22.382Z,73.23
2017-10-27T14:28:32.967Z,73.52
2017-10-27T14:29:43.469Z,73.71
2017-10-27T14:30:53.953Z,73.71
2017-10-27T14:32:04.543Z,73.23
2017-10-27T14:33:15.000Z,72.94
2017-10-27T14:34:25.499Z,73.14
2017-10-27T14:35:36.015Z,72.85
2017-10-27T14:36:46.497Z,72.75
2017-10-27T14:37:56.976Z,72.37
2017-10-27T14:39:07.480Z,72.75
2017-10-27T14:40:17.996Z,72.66
2017-10-27T14:41:28.461Z,72.75
2017-10-27T14:42:38.961Z,71.89
2017-10-27T14:43:49.430Z,71.8
2017-10-27T14:44:59.939Z,71.89
2017-10-27T14:46:10.433Z,71.89
2017-10-27T14:47:20.932Z,71.8
2017-10-27T14:48:31.625Z,71.8
2017-10-27T14:49:42.164Z,72.08
2017-10-27T14:50:52.681Z,72.18
2017-10-27T14:52:03.206Z,71.8
2017-10-27T14:53:13.684Z,72.28
2017-10-27T14:54:24.199Z,72.37
2017-10-27T14:55:34.712Z,72.66
2017-10-27T14:56:45.279Z,72.37
2017-10-27T14:57:55.513Z,72.28
2017-10-27T14:59:06.117Z,71.99
2017-10-27T15:00:17.065Z,71.99
2017-10-27T15:01:27.558Z,71.99
2017-10-27T15:02:38.084Z,72.47
2017-10-27T15:03:48.589Z,71.89
2017-10-27T15:04:59.295Z,72.28
2017-10-27T15:06:09.895Z,72.28
2017-10-27T15:07:20.408Z,72.75
2017-10-27T15:08:30.908Z,72.75
2017-10-27T15:09:41.517Z,73.14
2017-10-27T15:10:52.161Z,73.04